Time;durP1;ratioP1;P1;durP2;ratioP2;P2;SDS_P1;SDS_P2;PMS_P1;PMS_P2;Temp;Humidity;BMP_temperature;BMP_pressure;BME280_temperature;BME280_humidity;BME280_pressure;Samples;Min_cycle;Max_cycle;Signal;HPM_P1;HPM_P2
2021/09/26 00:00:31;;;;;;;3.85;1.80;;;13.00;84.50;;;;;;1905377;75;21081;-46
2021/09/26 00:03:00;;;;;;;4.17;1.82;;;12.90;84.40;;;;;;1905381;75;21507;-48
2021/09/26 00:05:30;;;;;;;1.50;1.25;;;13.00;84.40;;;;;;1905384;75;21016;-46
2021/09/26 00:07:59;;;;;;;4.22;1.52;;;13.00;84.40;;;;;;1905446;75;21031;-47
2021/09/26 00:10:28;;;;;;;2.20;1.80;;;13.00;84.30;;;;;;1905272;74;21028;-45
2021/09/26 00:12:58;;;;;;;4.17;1.87;;;13.00;84.30;;;;;;1905403;75;21089;-45
2021/09/26 00:15:28;;;;;;;4.67;1.75;;;13.00;84.40;;;;;;1905242;75;21016;-47
2021/09/26 00:17:58;;;;;;;4.50;1.95;;;13.00;84.40;;;;;;1905426;75;21134;-45
2021/09/26 00:20:27;;;;;;;2.10;1.40;;;13.00;84.40;;;;;;1905247;75;21043;-45
2021/09/26 00:22:57;;;;;;;3.83;1.87;;;13.00;84.90;;;;;;1905256;75;21071;-46
2021/09/26 00:25:26;;;;;;;1.72;1.47;;;13.00;84.20;;;;;;1905379;74;21023;-46
2021/09/26 00:27:56;;;;;;;3.20;1.77;;;13.00;84.20;;;;;;1905429;75;21027;-45
2021/09/26 00:30:25;;;;;;;3.20;1.52;;;13.00;84.20;;;;;;1905264;74;21003;-46
2021/09/26 00:32:55;;;;;;;5.05;1.65;;;13.00;84.20;;;;;;1905305;75;21073;-45
2021/09/26 00:35:26;;;;;;;5.33;1.60;;;13.10;84.20;;;;;;1905237;75;21003;-48
2021/09/26 00:37:55;;;;;;;7.92;1.62;;;13.10;84.00;;;;;;1905411;75;21011;-45
2021/09/26 00:40:24;;;;;;;4.78;1.82;;;13.10;83.90;;;;;;1905249;74;21015;-47
2021/09/26 00:42:54;;;;;;;3.40;1.82;;;13.10;83.80;;;;;;1905254;75;21533;-48
2021/09/26 00:45:23;;;;;;;3.35;1.50;;;13.10;83.90;;;;;;1905306;75;21046;-46
2021/09/26 00:47:53;;;;;;;3.40;1.57;;;13.10;83.90;;;;;;1905383;75;21115;-46
2021/09/26 00:50:23;;;;;;;2.42;1.62;;;13.10;83.90;;;;;;1905225;74;21113;-46
2021/09/26 00:52:53;;;;;;;3.85;1.40;;;13.10;84.00;;;;;;1905418;74;21164;-46
2021/09/26 00:55:22;;;;;;;3.05;2.15;;;13.10;84.00;;;;;;1905218;75;21085;-46
2021/09/26 00:57:52;;;;;;;2.35;1.92;;;13.20;84.10;;;;;;1905325;75;21015;-46
2021/09/26 01:00:22;;;;;;;3.65;1.80;;;13.20;84.20;;;;;;1905456;75;21027;-47
2021/09/26 01:02:51;;;;;;;2.67;1.77;;;13.20;84.80;;;;;;1905367;75;21077;-46
2021/09/26 01:05:23;;;;;;;2.70;2.02;;;13.10;84.10;;;;;;1905376;74;21016;-46
2021/09/26 01:08:16;;;;;;;5.53;1.90;;;13.20;84.10;;;;;;1905497;75;21473;-47
2021/09/26 01:11:05;;;;;;;6.05;2.05;;;13.10;84.00;;;;;;1904329;74;21031;-46
2021/09/26 01:13:40;;;;;;;3.12;1.50;;;13.20;84.00;;;;;;1905367;75;21421;-50
2021/09/26 01:16:31;;;;;;;2.80;1.70;;;13.20;84.00;;;;;;1905458;75;21043;-47
2021/09/26 01:19:21;;;;;;;3.37;1.87;;;13.20;84.00;;;;;;1905542;75;21008;-46
2021/09/26 01:21:53;;;;;;;3.58;1.60;;;13.20;84.00;;;;;;1905497;75;21027;-47
2021/09/26 01:25:00;;;;;;;2.72;1.82;;;13.20;84.10;;;;;;1905455;75;21079;-46
2021/09/26 01:27:35;;;;;;;3.33;1.82;;;13.20;84.10;;;;;;1905624;75;21036;-46
2021/09/26 01:30:21;;;;;;;;;;;13.20;84.00;;;;;;1907707;74;21019;-50
2021/09/26 01:32:57;;;;;;;;;;;13.20;84.40;;;;;;1908195;75;20128;-45
2021/09/26 01:35:27;;;;;;;2.35;1.82;;;13.20;84.10;;;;;;1905538;75;20136;-47
2021/09/26 01:37:59;;;;;;;2.42;1.80;;;13.20;84.00;;;;;;1905425;75;21085;-45
2021/09/26 01:40:37;;;;;;;2.70;2.05;;;13.10;83.90;;;;;;1905340;74;21043;-46
2021/09/26 01:43:08;;;;;;;2.92;1.80;;;13.10;84.20;;;;;;1904533;74;21539;-47
2021/09/26 01:45:53;;;;;;;2.47;1.80;;;13.10;84.30;;;;;;1905433;75;20997;-46
2021/09/26 01:48:25;;;;;;;4.62;2.75;;;13.10;84.50;;;;;;1905450;75;21455;-46
2021/09/26 01:50:57;;;;;;;3.05;1.82;;;13.00;84.50;;;;;;1920983;74;21027;-47
2021/09/26 01:53:27;;;;;;;2.30;1.95;;;13.00;84.60;;;;;;1924768;74;21080;-46
2021/09/26 01:55:58;;;;;;;2.72;1.80;;;13.00;84.70;;;;;;1924752;74;21050;-45
2021/09/26 01:58:29;;;;;;;3.02;1.60;;;13.00;84.70;;;;;;1924719;74;21088;-46
2021/09/26 02:00:58;;;;;;;7.12;1.98;;;13.00;84.70;;;;;;1924782;74;21022;-47
2021/09/26 02:03:28;;;;;;;2.55;1.72;;;13.00;84.90;;;;;;1924707;74;21002;-48
2021/09/26 02:05:58;;;;;;;2.62;2.15;;;13.00;84.90;;;;;;1924852;74;21387;-46
2021/09/26 02:08:28;;;;;;;5.53;2.27;;;13.00;85.00;;;;;;1924843;74;21088;-48
2021/09/26 02:10:58;;;;;;;2.98;2.02;;;12.90;84.90;;;;;;1924832;74;21015;-47
2021/09/26 02:13:28;;;;;;;8.13;2.20;;;12.90;84.90;;;;;;1924859;74;21015;-47
2021/09/26 02:15:58;;;;;;;2.85;1.77;;;12.90;84.90;;;;;;1924860;74;20998;-46
2021/09/26 02:18:29;;;;;;;2.67;2.00;;;12.90;85.00;;;;;;1924736;74;21068;-47
2021/09/26 02:20:59;;;;;;;2.30;2.00;;;12.90;85.10;;;;;;1924878;74;21015;-46
2021/09/26 02:23:28;;;;;;;3.22;2.27;;;12.90;85.30;;;;;;1924683;74;21027;-47
2021/09/26 02:25:58;;;;;;;3.10;2.27;;;12.90;85.40;;;;;;1924748;74;21085;-47
2021/09/26 02:28:29;;;;;;;2.35;2.15;;;12.90;85.30;;;;;;1924695;74;21047;-46
2021/09/26 02:30:58;;;;;;;3.20;2.15;;;12.90;85.40;;;;;;1924755;74;21039;-46
2021/09/26 02:33:27;;;;;;;4.67;2.33;;;12.80;85.40;;;;;;1924735;74;21019;-47
2021/09/26 02:35:57;;;;;;;3.80;2.50;;;12.70;85.60;;;;;;1924693;74;20999;-48
2021/09/26 02:38:26;;;;;;;3.50;2.35;;;12.70;85.90;;;;;;1924838;74;21034;-48
2021/09/26 02:40:58;;;;;;;3.40;2.00;;;12.80;86.20;;;;;;1924741;74;21080;-46
2021/09/26 02:43:36;;;;;;;3.02;1.85;;;12.70;86.30;;;;;;1923177;74;21019;-46
2021/09/26 02:46:08;;;;;;;4.53;2.92;;;12.70;86.30;;;;;;1886855;76;21079;-46
2021/09/26 02:48:38;;;;;;;4.83;2.05;;;12.70;86.30;;;;;;1878122;76;21027;-46
2021/09/26 02:51:08;;;;;;;3.22;2.25;;;12.70;86.40;;;;;;1867840;76;21040;-46
2021/09/26 02:53:37;;;;;;;2.90;2.12;;;12.70;86.40;;;;;;1905340;75;21020;-47
2021/09/26 02:56:07;;;;;;;3.05;2.42;;;12.60;86.80;;;;;;1905305;74;21023;-46
2021/09/26 02:58:40;;;;;;;4.05;2.30;;;12.70;87.00;;;;;;1905441;75;20996;-47
2021/09/26 03:01:10;;;;;;;8.43;2.65;;;12.70;86.90;;;;;;1905872;75;21123;-47
2021/09/26 03:03:40;;;;;;;2.87;2.00;;;12.60;86.70;;;;;;1905282;75;21019;-46
2021/09/26 03:06:09;;;;;;;5.80;2.52;;;12.60;86.80;;;;;;1905450;75;21000;-49
2021/09/26 03:08:39;;;;;;;2.95;2.45;;;12.60;86.90;;;;;;1905319;75;21027;-46
2021/09/26 03:11:08;;;;;;;4.90;2.40;;;12.60;87.00;;;;;;1905354;75;21011;-50
2021/09/26 03:13:37;;;;;;;2.40;2.15;;;12.60;87.20;;;;;;1905309;75;21094;-45
2021/09/26 03:16:07;;;;;;;4.92;2.40;;;12.60;87.90;;;;;;1905286;75;20999;-45
2021/09/26 03:18:36;;;;;;;7.80;2.80;;;12.60;87.30;;;;;;1905401;75;21010;-47
2021/09/26 03:21:06;;;;;;;5.05;2.17;;;12.60;87.40;;;;;;1905323;75;21027;-46
2021/09/26 03:23:35;;;;;;;6.22;2.30;;;12.70;87.60;;;;;;1905371;74;21015;-47
2021/09/26 03:26:05;;;;;;;4.42;2.30;;;12.70;87.70;;;;;;1905527;75;21019;-46
2021/09/26 03:28:34;;;;;;;6.90;2.50;;;12.70;87.70;;;;;;1905540;75;21027;-48
2021/09/26 03:31:04;;;;;;;3.85;3.45;;;12.80;87.70;;;;;;1905510;75;21075;-47
2021/09/26 03:33:33;;;;;;;12.82;8.65;;;12.80;87.70;;;;;;1905479;74;21094;-46
2021/09/26 03:36:03;;;;;;;10.68;8.90;;;12.80;87.70;;;;;;1905354;75;21076;-47
2021/09/26 03:38:33;;;;;;;9.48;6.47;;;12.80;87.70;;;;;;1905296;75;21019;-46
2021/09/26 03:41:02;;;;;;;6.80;6.20;;;12.80;87.80;;;;;;1905321;75;21011;-46
2021/09/26 03:43:31;;;;;;;24.23;4.03;;;12.80;87.70;;;;;;1905382;75;21015;-47
2021/09/26 03:46:01;;;;;;;2.33;2.02;;;12.80;87.60;;;;;;1905296;75;21023;-48
2021/09/26 03:48:30;;;;;;;3.95;2.58;;;12.80;87.70;;;;;;1905297;75;21019;-48
2021/09/26 03:51:00;;;;;;;3.27;2.35;;;12.80;87.60;;;;;;1909208;74;21112;-47
2021/09/26 03:53:29;;;;;;;7.53;2.85;;;12.80;87.50;;;;;;1924758;74;20995;-48
2021/09/26 03:55:59;;;;;;;10.08;2.58;;;12.80;87.70;;;;;;1924669;74;21023;-49
2021/09/26 03:58:28;;;;;;;5.53;2.20;;;12.80;87.80;;;;;;1924785;74;20991;-46
2021/09/26 04:00:58;;;;;;;3.20;2.12;;;12.80;87.80;;;;;;1924695;74;21015;-46
2021/09/26 04:03:27;;;;;;;2.27;1.85;;;12.90;87.80;;;;;;1924647;74;21031;-46
2021/09/26 04:05:57;;;;;;;2.92;2.10;;;12.90;87.60;;;;;;1924811;74;21062;-47
2021/09/26 04:08:26;;;;;;;3.92;2.12;;;13.00;87.60;;;;;;1924764;74;21042;-45
2021/09/26 04:10:56;;;;;;;4.50;1.72;;;13.00;87.30;;;;;;1924700;74;21022;-46
2021/09/26 04:13:25;;;;;;;3.20;1.70;;;13.10;87.20;;;;;;1924666;74;21106;-46
2021/09/26 04:15:54;;;;;;;2.75;1.87;;;13.10;87.00;;;;;;1924751;74;21046;-45
2021/09/26 04:18:24;;;;;;;4.05;2.25;;;13.20;86.80;;;;;;1924710;74;21070;-48
2021/09/26 04:20:53;;;;;;;5.70;2.08;;;13.20;86.70;;;;;;1924609;74;21023;-46
2021/09/26 04:23:23;;;;;;;7.75;2.95;;;13.30;86.60;;;;;;1924633;74;21039;-49
2021/09/26 04:25:52;;;;;;;4.17;2.30;;;13.30;86.50;;;;;;1924623;74;21109;-46
2021/09/26 04:28:21;;;;;;;3.62;1.98;;;13.40;86.30;;;;;;1924716;74;21113;-45
2021/09/26 04:30:51;;;;;;;3.62;1.67;;;13.40;86.20;;;;;;1924739;74;21023;-46
2021/09/26 04:33:20;;;;;;;2.95;1.65;;;13.50;86.00;;;;;;1924657;74;21078;-47
2021/09/26 04:35:50;;;;;;;7.33;4.25;;;13.50;85.90;;;;;;1924693;74;21050;-47
2021/09/26 04:38:19;;;;;;;3.42;2.35;;;13.60;85.90;;;;;;1924664;74;21422;-46
2021/09/26 04:40:49;;;;;;;3.55;2.00;;;13.60;85.80;;;;;;1924641;74;21018;-47
2021/09/26 04:43:18;;;;;;;4.03;1.82;;;13.60;85.70;;;;;;1924583;74;21159;-46
2021/09/26 04:45:47;;;;;;;9.43;1.82;;;13.70;85.70;;;;;;1924649;74;20999;-47
2021/09/26 04:48:17;;;;;;;5.60;1.57;;;13.70;85.50;;;;;;1924598;74;21023;-48
2021/09/26 04:50:46;;;;;;;2.77;1.90;;;13.80;85.60;;;;;;1924603;74;21100;-47
2021/09/26 04:53:16;;;;;;;5.10;1.87;;;13.80;85.50;;;;;;1907771;74;21047;-46
2021/09/26 04:55:46;;;;;;;4.35;1.80;;;13.90;85.60;;;;;;1905290;74;21418;-49
2021/09/26 04:58:15;;;;;;;5.40;2.20;;;14.00;85.40;;;;;;1905305;75;21089;-45
2021/09/26 05:00:46;;;;;;;2.98;1.80;;;14.10;85.40;;;;;;1905176;75;21063;-45
2021/09/26 05:03:16;;;;;;;2.95;2.60;;;14.10;85.30;;;;;;1905253;75;21015;-47
2021/09/26 05:05:45;;;;;;;10.85;2.67;;;14.20;85.10;;;;;;1905205;74;21004;-46
2021/09/26 05:08:14;;;;;;;2.30;1.70;;;14.30;84.70;;;;;;1905328;75;21066;-50
2021/09/26 05:10:44;;;;;;;3.20;1.77;;;14.40;84.60;;;;;;1905279;75;21598;-46
2021/09/26 05:13:13;;;;;;;4.90;2.10;;;14.50;84.50;;;;;;1905382;75;21091;-46
2021/09/26 05:15:43;;;;;;;4.92;2.10;;;14.60;84.40;;;;;;1905211;75;21019;-47
2021/09/26 05:18:12;;;;;;;3.87;1.80;;;14.80;84.30;;;;;;1905215;74;21023;-46
2021/09/26 05:20:42;;;;;;;5.00;2.20;;;14.90;84.00;;;;;;1905201;75;21101;-46
2021/09/26 05:23:11;;;;;;;2.42;1.80;;;14.90;83.60;;;;;;1905188;75;21155;-45
2021/09/26 05:25:41;;;;;;;9.33;2.40;;;15.00;83.60;;;;;;1905207;75;21023;-46
2021/09/26 05:28:10;;;;;;;8.53;2.90;;;15.10;83.30;;;;;;1905148;75;21011;-48
2021/09/26 05:30:39;;;;;;;5.22;3.22;;;15.10;83.20;;;;;;1905188;75;21016;-47
2021/09/26 05:33:09;;;;;;;6.70;2.42;;;15.20;83.10;;;;;;1905318;75;21000;-47
2021/09/26 05:35:38;;;;;;;6.78;2.22;;;15.20;82.90;;;;;;1905076;74;21035;-49
2021/09/26 05:38:07;;;;;;;4.62;1.92;;;15.30;83.00;;;;;;1905281;75;21027;-47
2021/09/26 05:40:37;;;;;;;4.80;2.10;;;15.30;82.80;;;;;;1905323;75;21015;-48
2021/09/26 05:43:06;;;;;;;7.22;1.67;;;15.30;82.80;;;;;;1905213;75;21117;-47
2021/09/26 05:45:35;;;;;;;2.92;1.57;;;15.30;82.60;;;;;;1905197;75;21113;-46
2021/09/26 05:48:05;;;;;;;16.17;2.77;;;15.30;82.60;;;;;;1905465;75;21074;-47
2021/09/26 05:50:34;;;;;;;3.42;1.87;;;15.30;82.50;;;;;;1905296;75;21085;-47
2021/09/26 05:53:04;;;;;;;3.40;1.80;;;15.30;82.60;;;;;;1915484;74;21042;-49
2021/09/26 05:55:33;;;;;;;7.47;2.92;;;15.30;82.50;;;;;;1924678;74;21011;-50
2021/09/26 05:58:03;;;;;;;12.07;2.50;;;15.30;82.40;;;;;;1924833;74;21022;-49
2021/09/26 06:00:32;;;;;;;5.22;2.20;;;15.40;82.40;;;;;;1924727;74;21014;-49
2021/09/26 06:03:02;;;;;;;8.33;2.70;;;15.40;82.40;;;;;;1924754;74;21019;-48
2021/09/26 06:05:31;;;;;;;2.83;2.52;;;15.40;82.30;;;;;;1924730;74;21018;-47
2021/09/26 06:08:00;;;;;;;5.95;1.52;;;15.40;82.20;;;;;;1924848;74;21137;-47
2021/09/26 06:10:30;;;;;;;8.65;2.02;;;15.40;82.20;;;;;;1924758;74;21019;-48
2021/09/26 06:12:59;;;;;;;6.22;2.45;;;15.40;82.20;;;;;;1924767;74;21081;-47
2021/09/26 06:15:30;;;;;;;11.75;2.85;;;15.40;82.30;;;;;;1925091;74;21043;-49
2021/09/26 06:17:59;;;;;;;8.75;3.98;;;15.40;82.30;;;;;;1924674;74;21069;-47
2021/09/26 06:20:29;;;;;;;6.80;2.52;;;15.40;82.30;;;;;;1924716;74;21088;-47
2021/09/26 06:22:58;;;;;;;6.15;2.25;;;15.40;82.10;;;;;;1924670;74;21085;-49
2021/09/26 06:25:28;;;;;;;10.10;2.72;;;15.40;82.10;;;;;;1924751;74;21093;-46
2021/09/26 06:27:59;;;;;;;9.05;3.08;;;15.50;82.10;;;;;;1924725;74;21027;-45
2021/09/26 06:30:28;;;;;;;7.03;1.95;;;15.50;82.10;;;;;;1924711;74;21046;-45
2021/09/26 06:32:58;;;;;;;2.52;1.60;;;15.50;81.60;;;;;;1924818;74;21019;-46
2021/09/26 06:35:27;;;;;;;9.85;2.10;;;15.50;80.90;;;;;;1924817;74;21105;-46
2021/09/26 06:37:56;;;;;;;4.75;2.02;;;15.50;80.80;;;;;;1924814;74;21023;-48
2021/09/26 06:40:26;;;;;;;15.58;2.25;;;15.60;80.90;;;;;;1924705;74;21084;-46
2021/09/26 06:42:55;;;;;;;5.42;2.42;;;15.60;80.70;;;;;;1924875;74;21437;-48
2021/09/26 06:45:25;;;;;;;4.55;2.65;;;15.60;80.50;;;;;;1924820;74;21088;-50
2021/09/26 06:47:54;;;;;;;5.30;1.70;;;15.70;80.30;;;;;;1924795;74;21108;-48
2021/09/26 06:50:23;;;;;;;5.45;2.35;;;15.70;80.60;;;;;;1924698;74;20999;-47
2021/09/26 06:52:53;;;;;;;6.08;1.77;;;15.80;80.40;;;;;;1921207;74;21113;-46
2021/09/26 06:55:22;;;;;;;7.95;3.45;;;15.70;80.10;;;;;;1905401;75;21019;-47
2021/09/26 06:57:52;;;;;;;3.72;2.02;;;15.80;79.90;;;;;;1905331;75;21081;-50
2021/09/26 07:00:21;;;;;;;2.22;1.77;;;15.90;79.90;;;;;;1905345;75;20995;-48
2021/09/26 07:02:52;;;;;;;6.08;2.20;;;15.90;79.70;;;;;;1905403;75;21144;-48
2021/09/26 07:05:22;;;;;;;9.93;2.47;;;16.00;79.70;;;;;;1905298;74;21539;-48
2021/09/26 07:07:51;;;;;;;4.42;2.58;;;16.00;79.60;;;;;;1905293;75;21011;-49
2021/09/26 07:10:21;;;;;;;6.08;3.00;;;16.00;79.40;;;;;;1905320;75;21034;-49
2021/09/26 07:12:50;;;;;;;5.45;3.20;;;16.00;79.40;;;;;;1905352;75;21019;-46
2021/09/26 07:15:19;;;;;;;9.13;3.20;;;16.10;79.50;;;;;;1905389;75;21031;-46
2021/09/26 07:17:49;;;;;;;8.00;3.20;;;16.10;79.50;;;;;;1905165;74;21019;-47
2021/09/26 07:20:19;;;;;;;6.25;3.75;;;16.20;79.60;;;;;;1905209;74;21020;-48
2021/09/26 07:22:48;;;;;;;6.50;2.17;;;16.20;79.10;;;;;;1905339;75;21089;-47
2021/09/26 07:25:17;;;;;;;6.20;2.60;;;16.20;79.10;;;;;;1905249;75;21074;-47
2021/09/26 07:27:47;;;;;;;7.40;2.72;;;16.30;78.90;;;;;;1905288;75;21054;-48
2021/09/26 07:30:16;;;;;;;6.33;2.35;;;16.30;78.70;;;;;;1905285;75;21070;-46
2021/09/26 07:32:45;;;;;;;4.47;2.00;;;16.40;78.60;;;;;;1905498;74;21043;-46
2021/09/26 07:35:15;;;;;;;3.98;1.60;;;16.40;78.50;;;;;;1905398;75;21304;-46
2021/09/26 07:37:45;;;;;;;6.35;2.42;;;16.50;78.10;;;;;;1905222;75;21023;-47
2021/09/26 07:40:14;;;;;;;4.70;1.30;;;16.60;78.20;;;;;;1905332;75;21023;-46
2021/09/26 07:42:44;;;;;;;6.12;1.80;;;16.60;78.10;;;;;;1905269;75;21019;-47
2021/09/26 07:45:13;;;;;;;4.47;1.72;;;16.70;77.70;;;;;;1905211;75;21073;-47
2021/09/26 07:47:44;;;;;;;3.15;1.72;;;16.80;77.70;;;;;;1905287;74;21011;-49
2021/09/26 07:50:14;;;;;;;3.05;1.50;;;16.80;77.40;;;;;;1905453;75;21023;-49
2021/09/26 07:52:44;;;;;;;5.30;1.85;;;16.90;77.00;;;;;;1905283;75;21027;-46
2021/09/26 07:55:13;;;;;;;5.03;1.90;;;16.90;77.30;;;;;;1922841;74;21120;-46
2021/09/26 07:57:43;;;;;;;4.42;1.75;;;17.00;77.10;;;;;;1924655;74;21015;-46
2021/09/26 08:00:13;;;;;;;6.17;1.90;;;17.10;77.10;;;;;;1924632;74;21010;-48
2021/09/26 08:02:43;;;;;;;2.85;1.65;;;17.10;77.20;;;;;;1924631;74;21089;-46
2021/09/26 08:05:12;;;;;;;4.80;1.90;;;17.10;76.60;;;;;;1924552;74;21155;-48
2021/09/26 08:07:42;;;;;;;4.20;1.82;;;17.20;76.10;;;;;;1924691;74;21058;-48
2021/09/26 08:10:11;;;;;;;5.17;2.30;;;17.20;76.00;;;;;;1924700;74;21014;-45
2021/09/26 08:12:41;;;;;;;3.37;1.20;;;17.30;75.80;;;;;;1924680;74;20995;-49
2021/09/26 08:15:11;;;;;;;3.75;1.50;;;17.30;75.40;;;;;;1924571;74;21085;-46
2021/09/26 08:17:41;;;;;;;4.20;1.37;;;17.40;75.20;;;;;;1924658;74;21108;-48
2021/09/26 08:20:13;;;;;;;1.45;1.10;;;17.50;74.90;;;;;;1924619;74;21058;-46
2021/09/26 08:22:42;;;;;;;3.62;1.60;;;17.50;74.50;;;;;;1924738;74;21109;-45
2021/09/26 08:25:13;;;;;;;2.95;1.40;;;17.50;74.40;;;;;;1924566;74;21054;-49
2021/09/26 08:27:43;;;;;;;2.27;1.47;;;17.60;74.00;;;;;;1924598;74;21019;-46
2021/09/26 08:30:13;;;;;;;3.10;1.72;;;17.60;74.10;;;;;;1924622;74;20998;-49
2021/09/26 08:32:43;;;;;;;3.42;1.32;;;17.60;73.80;;;;;;1924660;74;21108;-45
2021/09/26 08:35:12;;;;;;;3.35;1.20;;;17.60;73.30;;;;;;1924600;74;21023;-50
2021/09/26 08:37:42;;;;;;;2.98;2.08;;;17.60;72.70;;;;;;1924627;74;21011;-46
2021/09/26 08:40:13;;;;;;;4.03;1.42;;;17.60;72.50;;;;;;1924662;74;20995;-47
2021/09/26 08:42:42;;;;;;;2.33;1.27;;;17.70;72.30;;;;;;1924644;74;20999;-48
2021/09/26 08:45:14;;;;;;;4.72;2.20;;;17.70;72.20;;;;;;1924695;74;21084;-47
2021/09/26 08:47:44;;;;;;;2.00;1.07;;;17.80;72.50;;;;;;1924618;74;21020;-48
2021/09/26 08:50:16;;;;;;;3.85;1.70;;;17.80;72.10;;;;;;1924588;74;21018;-50
2021/09/26 08:52:46;;;;;;;2.85;1.42;;;17.90;72.20;;;;;;1924685;74;21019;-50
2021/09/26 08:55:16;;;;;;;4.40;1.75;;;18.00;71.80;;;;;;1924507;74;21066;-49
2021/09/26 08:57:46;;;;;;;2.42;1.72;;;18.00;71.40;;;;;;1924597;74;21042;-50
2021/09/26 09:00:17;;;;;;;3.40;1.22;;;18.10;71.70;;;;;;1924654;74;21011;-51
2021/09/26 09:02:46;;;;;;;4.05;1.87;;;18.10;71.00;;;;;;1924577;74;21038;-50
2021/09/26 09:05:39;;;;;;;12.07;6.87;;;18.10;70.70;;;;;;1924663;74;21014;-47
2021/09/26 09:08:15;;;;;;;3.42;1.30;;;18.10;70.70;;;;;;1924624;74;21069;-50
2021/09/26 09:10:53;;;;;;;3.05;1.42;;;18.20;70.60;;;;;;1924762;74;21011;-49
2021/09/26 09:13:31;;;;;;;2.77;1.10;;;18.20;70.50;;;;;;1924593;74;21144;-50
2021/09/26 09:16:07;;;;;;;6.30;1.50;;;18.20;70.60;;;;;;1924747;74;21441;-49
2021/09/26 09:18:51;;;;;;;3.70;1.30;;;18.20;70.60;;;;;;1924625;74;21018;-49
2021/09/26 09:21:24;;;;;;;2.58;1.50;;;18.20;70.20;;;;;;1924479;74;21441;-46
2021/09/26 09:23:56;;;;;;;3.22;1.75;;;18.20;70.60;;;;;;1888118;76;21033;-46
2021/09/26 09:26:33;;;;;;;4.70;1.52;;;18.30;70.60;;;;;;1874643;76;21039;-50
2021/09/26 09:29:03;;;;;;;1.82;1.32;;;18.30;70.10;;;;;;1878082;76;21054;-50
2021/09/26 09:31:33;;;;;;;3.85;1.15;;;18.30;70.20;;;;;;1878101;76;21015;-48
2021/09/26 09:34:04;;;;;;;3.12;1.52;;;18.30;70.50;;;;;;1878100;76;21043;-48
2021/09/26 09:36:33;;;;;;;2.33;1.20;;;18.40;70.70;;;;;;1877750;76;21089;-49
2021/09/26 09:39:10;;;;;;;2.65;1.40;;;18.40;71.00;;;;;;1878117;76;21122;-47
2021/09/26 09:41:41;;;;;;;4.33;1.30;;;18.40;71.10;;;;;;1878041;76;21101;-50
2021/09/26 09:44:13;;;;;;;1.52;1.25;;;18.50;71.50;;;;;;1878187;76;21571;-46
2021/09/26 09:46:45;;;;;;;2.47;1.22;;;18.50;70.70;;;;;;1877946;76;21055;-47
2021/09/26 09:49:19;;;;;;;3.77;1.57;;;18.50;70.60;;;;;;1878167;76;21042;-49
2021/09/26 09:51:51;;;;;;;1.80;1.10;;;18.60;70.40;;;;;;1878301;76;21014;-47
2021/09/26 09:54:38;;;;;;;2.33;1.05;;;18.60;70.70;;;;;;1877210;76;21501;-49
2021/09/26 09:57:16;;;;;;;3.22;1.22;;;18.60;70.10;;;;;;1905286;74;21075;-49
2021/09/26 09:59:47;;;;;;;2.92;1.30;;;18.70;70.30;;;;;;1905321;74;21035;-49
2021/09/26 10:02:17;;;;;;;4.45;1.45;;;18.70;69.90;;;;;;1905374;75;21015;-48
2021/09/26 10:04:48;;;;;;;3.40;1.42;;;18.70;70.10;;;;;;1905564;75;21148;-46
2021/09/26 10:07:30;;;;;;;3.05;1.22;;;18.70;69.90;;;;;;1905360;75;21054;-49
2021/09/26 10:09:57;;;;;;;4.35;1.60;;;18.70;69.30;;;;;;1904703;74;21120;-49
2021/09/26 10:12:29;;;;;;;3.85;1.37;;;18.80;69.60;;;;;;1905335;75;20995;-51
2021/09/26 10:15:00;;;;;;;4.67;1.57;;;18.80;69.60;;;;;;1905260;75;21023;-48
2021/09/26 10:17:31;;;;;;;3.60;1.15;;;18.80;69.60;;;;;;1905241;75;21019;-48
2021/09/26 10:20:00;;;;;;;2.87;1.40;;;18.80;69.80;;;;;;1905329;75;21019;-50
2021/09/26 10:22:36;;;;;;;3.67;1.35;;;18.90;69.90;;;;;;1905227;75;21019;-50
2021/09/26 10:25:01;;;;;;;7.95;4.10;;;18.90;69.60;;;;;;1905018;74;21020;-49
2021/09/26 10:27:32;;;;;;;4.30;2.00;;;18.90;69.30;;;;;;1905298;74;21442;-50
2021/09/26 10:30:07;;;;;;;4.78;1.60;;;19.00;68.60;;;;;;1905267;74;21011;-47
2021/09/26 10:32:37;;;;;;;;;;;19.00;68.80;;;;;;1908117;75;21117;-48
2021/09/26 10:35:07;;;;;;;8.75;2.47;;;19.00;68.50;;;;;;1905480;75;20101;-49
2021/09/26 10:37:36;;;;;;;4.45;1.60;;;18.90;68.30;;;;;;1905245;75;21015;-50
2021/09/26 10:40:07;;;;;;;4.15;1.20;;;19.00;68.10;;;;;;1905354;75;21082;-50
2021/09/26 10:42:38;;;;;;;6.25;1.50;;;19.00;67.70;;;;;;1905255;75;21062;-50
2021/09/26 10:45:09;;;;;;;3.58;1.45;;;19.00;67.50;;;;;;1905433;75;21106;-50
2021/09/26 10:47:40;;;;;;;4.30;1.50;;;19.00;67.60;;;;;;1905302;75;21085;-50
2021/09/26 10:50:13;;;;;;;1.20;1.10;;;19.00;67.70;;;;;;1905369;75;20991;-47
2021/09/26 10:52:48;;;;;;;2.67;1.10;;;19.00;67.70;;;;;;1905431;75;21038;-49
2021/09/26 10:55:27;;;;;;;3.58;0.98;;;19.00;67.60;;;;;;1909563;74;21026;-49
2021/09/26 10:58:07;;;;;;;4.17;1.45;;;19.00;67.30;;;;;;1924595;74;21006;-48
2021/09/26 11:00:45;;;;;;;2.60;1.35;;;19.00;67.30;;;;;;1924663;74;21057;-48
2021/09/26 11:03:17;;;;;;;4.80;1.57;;;18.90;66.70;;;;;;1924125;74;21051;-49
2021/09/26 11:05:48;;;;;;;4.05;1.40;;;18.90;66.80;;;;;;1924448;74;21354;-46
2021/09/26 11:08:26;;;;;;;1.50;1.05;;;18.90;67.10;;;;;;1924409;74;21132;-47
2021/09/26 11:10:58;;;;;;;4.83;1.55;;;18.90;67.40;;;;;;1922967;74;21018;-48
2021/09/26 11:13:32;;;;;;;3.77;1.35;;;18.90;67.70;;;;;;1923755;74;21117;-48
2021/09/26 11:16:19;;;;;;;6.40;1.60;;;18.90;67.80;;;;;;1924830;74;21445;-49
2021/09/26 11:19:03;;;;;;;4.92;1.35;;;18.90;67.80;;;;;;1924323;74;21105;-50
2021/09/26 11:21:42;;;;;;;3.33;1.45;;;18.90;68.00;;;;;;1886244;76;21533;-46
2021/09/26 11:24:26;;;;;;;4.17;1.42;;;18.80;67.90;;;;;;1878048;76;21007;-50
2021/09/26 11:27:04;;;;;;;2.27;1.50;;;18.80;67.80;;;;;;1877929;76;21070;-46
2021/09/26 11:29:42;;;;;;;5.85;1.50;;;18.80;67.50;;;;;;1878030;76;21050;-49
2021/09/26 11:32:26;;;;;;;5.55;1.67;;;18.80;67.20;;;;;;1877950;76;21529;-46
2021/09/26 11:34:58;;;;;;;3.80;1.37;;;18.80;67.00;;;;;;1878304;76;21074;-49
2021/09/26 11:37:44;;;;;;;2.10;1.30;;;18.80;67.40;;;;;;1877019;76;21152;-46
2021/09/26 11:40:12;;;;;;;6.20;1.92;;;18.80;67.00;;;;;;1876500;76;21097;-49
2021/09/26 11:42:44;;;;;;;2.08;1.50;;;18.80;66.50;;;;;;1877877;76;21031;-47
2021/09/26 11:45:15;;;;;;;3.55;1.40;;;18.70;66.10;;;;;;1877556;76;21434;-47
2021/09/26 11:47:46;;;;;;;4.33;1.90;;;18.80;65.90;;;;;;1877918;76;21036;-46
2021/09/26 11:50:16;;;;;;;3.47;1.32;;;18.90;66.40;;;;;;1875915;76;21042;-49
2021/09/26 11:52:46;;;;;;;5.15;1.55;;;18.90;65.80;;;;;;1878056;76;21031;-50
2021/09/26 11:55:17;;;;;;;5.97;2.30;;;18.90;65.10;;;;;;1878099;76;21097;-48
2021/09/26 11:57:58;;;;;;;3.83;2.12;;;19.00;65.90;;;;;;1877882;76;21093;-46
2021/09/26 12:00:29;;;;;;;5.95;2.10;;;19.00;65.90;;;;;;1877927;76;21137;-50
2021/09/26 12:03:13;;;;;;;6.37;2.27;;;19.00;65.90;;;;;;1877976;76;21042;-46
2021/09/26 12:05:43;;;;;;;4.35;1.85;;;19.00;66.20;;;;;;1877977;76;21497;-47
2021/09/26 12:08:12;;;;;;;6.50;2.12;;;19.00;65.60;;;;;;1877794;76;21015;-49
2021/09/26 12:10:45;;;;;;;5.12;1.80;;;19.00;65.80;;;;;;1877968;76;21096;-48
2021/09/26 12:13:15;;;;;;;1.57;1.00;;;19.00;66.20;;;;;;1877891;76;21007;-47
2021/09/26 12:15:45;;;;;;;3.22;1.57;;;18.90;66.30;;;;;;1878023;76;21096;-47
2021/09/26 12:18:25;;;;;;;7.15;2.83;;;18.90;66.60;;;;;;1878113;76;21104;-49
2021/09/26 12:21:09;;;;;;;8.95;1.62;;;18.90;66.80;;;;;;1877891;76;21042;-47
2021/09/26 12:23:59;;;;;;;4.08;1.60;;;18.80;66.90;;;;;;1877973;76;21051;-49
2021/09/26 12:26:31;;;;;;;5.58;1.85;;;18.80;67.10;;;;;;1861601;76;21103;-49
2021/09/26 12:29:12;;;;;;;4.67;1.80;;;18.70;67.40;;;;;;1877601;76;21558;-49
2021/09/26 12:31:43;;;;;;;6.25;2.10;;;18.70;67.80;;;;;;1847987;76;21058;-51
2021/09/26 12:34:30;;;;;;;5.05;2.12;;;18.60;67.80;;;;;;1877938;76;21003;-48
2021/09/26 12:37:01;;;;;;;4.65;1.80;;;18.60;68.20;;;;;;1877848;76;21074;-49
2021/09/26 12:39:35;;;;;;;3.85;1.57;;;18.60;68.60;;;;;;1877909;76;21081;-48
2021/09/26 12:42:06;;;;;;;6.33;2.20;;;18.50;69.00;;;;;;1878336;76;21485;-48
2021/09/26 12:44:38;;;;;;;3.55;1.85;;;18.40;69.70;;;;;;1878028;76;21011;-49
2021/09/26 12:47:13;;;;;;;4.10;2.62;;;18.40;69.40;;;;;;1877986;76;21094;-50
2021/09/26 12:49:44;;;;;;;6.50;1.67;;;18.30;69.70;;;;;;1876864;76;21051;-48
2021/09/26 12:52:18;;;;;;;4.83;3.72;;;18.30;70.00;;;;;;1877780;76;21031;-46
2021/09/26 12:54:48;;;;;;;;;;;18.20;70.30;;;;;;1880797;76;21124;-48
2021/09/26 12:57:20;;;;;;;2.80;1.57;;;18.20;71.50;;;;;;1873863;76;20113;-47
2021/09/26 12:59:52;;;;;;;4.65;1.87;;;18.20;70.80;;;;;;1871286;77;21035;-49
2021/09/26 13:02:30;;;;;;;2.92;1.80;;;18.20;71.10;;;;;;1871371;77;21590;-45
2021/09/26 13:05:11;;;;;;;8.15;2.10;;;18.10;71.30;;;;;;1871316;77;21047;-49
2021/09/26 13:07:41;;;;;;;6.05;1.42;;;18.10;71.60;;;;;;1870976;77;21039;-49
2021/09/26 13:10:13;;;;;;;13.38;3.55;;;18.10;72.20;;;;;;1871329;77;21011;-47